Time;durP1;ratioP1;P1;durP2;ratioP2;P2;SDS_P1;SDS_P2;PMS_P1;PMS_P2;Temp;Humidity;BMP_temperature;BMP_pressure;BME280_temperature;BME280_humidity;BME280_pressure;Samples;Min_cycle;Max_cycle;Signal;HPM_P1;HPM_P2
2023/01/16 00:01:43;;;;;;;;;;;3.20;99.90;;;;;;5094760;28;20144;-77
2023/01/16 00:04:08;;;;;;;;;;;3.20;99.90;;;;;;5112485;28;19943;-77
2023/01/16 00:06:35;;;;;;;;;;;3.30;99.90;;;;;;5111092;28;19907;-78
2023/01/16 00:09:02;;;;;;;;;;;3.30;99.90;;;;;;5107906;28;19927;-77
2023/01/16 00:11:28;;;;;;;;;;;3.30;99.90;;;;;;5104060;28;20030;-77
2023/01/16 00:13:53;;;;;;;;;;;3.30;99.90;;;;;;5104386;28;20366;-78
2023/01/16 00:16:20;;;;;;;;;;;3.30;99.90;;;;;;5104684;28;19908;-78
2023/01/16 00:18:46;;;;;;;;;;;3.30;99.90;;;;;;5103788;28;19914;-78
2023/01/16 00:21:12;;;;;;;;;;;2.70;99.90;;;;;;5104546;28;20002;-78
2023/01/16 00:23:37;;;;;;;;;;;3.30;99.90;;;;;;5103863;28;20188;-78
2023/01/16 00:26:06;;;;;;;;;;;3.40;99.90;;;;;;5103833;28;20211;-77
2023/01/16 00:28:32;;;;;;;;;;;3.40;99.90;;;;;;5092837;28;19920;-78
2023/01/16 00:30:58;;;;;;;;;;;3.40;99.90;;;;;;5065155;28;19935;-77
2023/01/16 00:33:23;;;;;;;;;;;3.50;99.90;;;;;;5064586;28;19916;-78
2023/01/16 00:35:50;;;;;;;;;;;3.60;99.90;;;;;;5083078;28;20370;-78
2023/01/16 00:38:16;;;;;;;;;;;3.50;99.90;;;;;;5066323;28;20021;-78
2023/01/16 00:40:42;;;;;;;;;;;3.50;99.90;;;;;;5083505;28;20487;-77
2023/01/16 00:43:07;;;;;;;;;;;3.40;99.90;;;;;;5083322;28;20010;-77
2023/01/16 00:45:33;;;;;;;;;;;3.50;99.90;;;;;;5083728;28;19939;-78
2023/01/16 00:47:58;;;;;;;;;;;3.40;99.90;;;;;;5067340;28;19975;-78
2023/01/16 00:50:24;;;;;;;;;;;0.40;99.90;;;;;;5066976;28;20279;-77
2023/01/16 00:52:50;;;;;;;;;;;3.30;99.90;;;;;;5085445;28;19920;-77
2023/01/16 00:55:15;;;;;;;;;;;3.30;99.90;;;;;;5086586;28;20092;-78
2023/01/16 00:57:41;;;;;;;;;;;1.90;99.90;;;;;;5069049;28;19919;-77
2023/01/16 01:00:07;;;;;;;;;;;3.30;99.90;;;;;;5091725;28;19908;-78
2023/01/16 01:02:32;;;;;;;;;;;3.30;99.90;;;;;;5092019;28;20274;-77
2023/01/16 01:04:58;;;;;;;;;;;3.30;99.90;;;;;;5092661;28;20219;-78
2023/01/16 01:07:24;;;;;;;;;;;3.30;99.90;;;;;;5073812;28;20112;-78
2023/01/16 01:09:49;;;;;;;;;;;3.20;99.90;;;;;;5083066;28;20272;-77
2023/01/16 01:12:15;;;;;;;;;;;3.20;99.90;;;;;;5064344;28;19908;-77
2023/01/16 01:14:40;;;;;;;;;;;3.20;99.90;;;;;;5082181;28;19937;-77
2023/01/16 01:17:06;;;;;;;;;;;3.30;99.90;;;;;;5082154;28;19919;-77
2023/01/16 01:19:37;;;;;;;;;;;3.30;99.90;;;;;;5081449;28;19908;-77
2023/01/16 01:22:03;;;;;;;;;;;4.60;99.90;;;;;;5081423;28;20121;-77
2023/01/16 01:24:29;;;;;;;;;;;3.30;99.90;;;;;;5081579;28;20378;-77
2023/01/16 01:26:54;;;;;;;;;;;3.20;99.90;;;;;;5062970;28;19977;-76
2023/01/16 01:29:20;;;;;;;;;;;3.00;99.90;;;;;;5081210;28;19919;-77
2023/01/16 01:31:45;;;;;;;;;;;3.00;99.90;;;;;;5102698;28;19907;-77
2023/01/16 01:34:11;;;;;;;;;;;3.00;99.90;;;;;;5102061;28;19916;-77
2023/01/16 01:36:37;;;;;;;;;;;3.00;99.90;;;;;;5101911;28;19932;-76
2023/01/16 01:39:02;;;;;;;;;;;3.00;99.90;;;;;;5083263;28;20531;-78
2023/01/16 01:41:29;;;;;;;;;;;2.90;99.90;;;;;;5100817;28;20299;-77
2023/01/16 01:43:56;;;;;;;;;;;2.90;99.90;;;;;;5101172;28;20325;-78
2023/01/16 01:46:25;;;;;;;;;;;3.00;99.90;;;;;;5101063;28;19965;-77
2023/01/16 01:48:57;;;;;;;;;;;3.10;99.90;;;;;;5100687;28;19914;-77
2023/01/16 01:51:25;;;;;;;;;;;3.10;99.90;;;;;;5082078;28;20324;-77
2023/01/16 01:53:53;;;;;;;;;;;3.00;99.90;;;;;;5100572;28;19916;-78
2023/01/16 01:56:29;;;;;;;;;;;2.90;99.90;;;;;;5100909;28;19939;-77
2023/01/16 01:59:00;;;;;;;;;;;3.00;99.90;;;;;;5100962;28;19935;-77
2023/01/16 02:01:27;;;;;;;;;;;3.00;99.90;;;;;;5082193;28;20091;-77
2023/01/16 02:03:57;;;;;;;;;;;3.00;99.90;;;;;;5100949;28;20011;-78
2023/01/16 02:06:25;;;;;;;;;;;2.90;99.90;;;;;;5082231;28;19916;-77
2023/01/16 02:08:52;;;;;;;;;;;2.90;99.90;;;;;;5100101;28;20081;-77
2023/01/16 02:11:32;;;;;;;;;;;2.90;99.90;;;;;;5100382;28;19923;-77
2023/01/16 02:14:00;;;;;;;;;;;3.00;99.90;;;;;;5082598;28;19927;-77
2023/01/16 02:19:19;;;;;;;;;;;3.10;99.90;;;;;;5101970;28;20321;-77
2023/01/16 02:22:11;;;;;;;;;;;3.20;99.90;;;;;;5082332;28;19911;-77
2023/01/16 02:24:39;;;;;;;;;;;3.40;99.90;;;;;;5080693;28;20073;-77
2023/01/16 02:27:22;;;;;;;;;;;3.70;99.90;;;;;;5100596;28;19961;-77
2023/01/16 02:30:07;;;;;;;;;;;3.70;99.90;;;;;;5082763;28;19969;-76
2023/01/16 02:32:46;;;;;;;;;;;3.60;99.90;;;;;;5101198;28;20455;-77
2023/01/16 02:35:17;;;;;;;;;;;3.70;99.90;;;;;;5081748;28;19998;-77
2023/01/16 02:37:54;;;;;;;;;;;3.60;99.90;;;;;;5082514;28;20443;-76
2023/01/16 02:40:37;;;;;;;;;;;3.50;99.90;;;;;;5101456;28;19916;-77
2023/01/16 02:43:06;;;;;;;;;;;3.50;99.90;;;;;;5100822;28;19907;-77
2023/01/16 02:45:50;;;;;;;;;;;3.40;99.90;;;;;;5100446;28;19976;-77
2023/01/16 02:48:36;;;;;;;;;;;3.40;99.90;;;;;;5100355;28;19908;-77
2023/01/16 02:51:10;;;;;;;;;;;3.30;99.90;;;;;;4997346;28;20021;-77
2023/01/16 02:53:42;;;;;;;;;;;4.80;99.90;;;;;;4998176;28;19975;-77
2023/01/16 02:56:14;;;;;;;;;;;3.20;99.90;;;;;;4997149;28;20679;-77
2023/01/16 02:58:41;;;;;;;;;;;5.80;99.90;;;;;;4980879;28;19910;-77
2023/01/16 03:01:07;;;;;;;;;;;3.20;99.90;;;;;;4997625;28;19945;-77
2023/01/16 03:03:42;;;;;;;;;;;3.20;99.90;;;;;;4984286;28;20237;-78
2023/01/16 03:06:07;;;;;;;;;;;3.20;99.90;;;;;;4997578;28;20008;-77
2023/01/16 03:08:44;;;;;;;;;;;3.10;99.90;;;;;;4996433;28;19997;-77
2023/01/16 03:11:12;;;;;;;;;;;3.10;99.90;;;;;;4996910;28;19914;-77
2023/01/16 03:14:01;;;;;;;;;;;3.10;99.90;;;;;;4980293;28;19921;-78
2023/01/16 03:17:01;;;;;;;;;;;3.10;99.90;;;;;;4919392;29;19911;-77
2023/01/16 03:19:35;;;;;;;;;;;3.10;99.90;;;;;;4844425;29;20013;-78
2023/01/16 03:22:23;;;;;;;;;;;3.10;99.90;;;;;;4844329;29;20116;-78
2023/01/16 03:24:58;;;;;;;;;;;3.20;99.90;;;;;;4841307;29;19923;-77
2023/01/16 03:27:39;;;;;;;;;;;3.30;99.90;;;;;;4854466;29;20009;-78
2023/01/16 03:30:14;;;;;;;;;;;3.30;99.90;;;;;;4917697;29;19919;-77
2023/01/16 03:32:44;;;;;;;;;;;3.40;99.90;;;;;;4903270;29;19959;-77
2023/01/16 03:35:16;;;;;;;;;;;3.50;99.90;;;;;;4904351;29;19911;-76
2023/01/16 03:37:53;;;;;;;;;;;3.50;99.90;;;;;;4904567;29;20174;-78
2023/01/16 03:40:22;;;;;;;;;;;3.20;99.90;;;;;;4893201;29;19995;-77
2023/01/16 03:42:52;;;;;;;;;;;3.50;99.90;;;;;;4909193;29;20013;-77
2023/01/16 03:45:23;;;;;;;;;;;3.40;99.90;;;;;;4909747;29;19914;-77
2023/01/16 03:47:51;;;;;;;;;;;3.50;99.90;;;;;;4910251;29;19990;-77
2023/01/16 03:50:20;;;;;;;;;;;3.50;99.90;;;;;;4911192;29;19911;-77
2023/01/16 03:52:48;;;;;;;;;;;3.60;99.90;;;;;;4951969;28;20018;-78
2023/01/16 03:55:29;;;;;;;;;;;3.60;99.90;;;;;;5111590;28;20010;-77
2023/01/16 03:57:58;;;;;;;;;;;3.60;99.90;;;;;;5108391;28;19907;-78
2023/01/16 04:00:25;;;;;;;;;;;3.60;99.90;;;;;;5089022;28;19919;-77
2023/01/16 04:02:52;;;;;;;;;;;3.60;99.90;;;;;;5108265;28;19908;-77
2023/01/16 04:05:22;;;;;;;;;;;3.60;99.90;;;;;;5107027;28;19919;-77
2023/01/16 04:07:53;;;;;;;;;;;3.50;99.90;;;;;;5088289;28;19919;-77
2023/01/16 04:10:31;;;;;;;;;;;3.50;99.90;;;;;;5111530;28;19916;-77
2023/01/16 04:12:58;;;;;;;;;;;3.50;99.90;;;;;;5094729;28;19965;-77
2023/01/16 04:15:26;;;;;;;;;;;3.50;99.90;;;;;;5113581;28;19908;-77
2023/01/16 04:17:52;;;;;;;;;;;3.50;99.90;;;;;;5112658;28;19907;-77
2023/01/16 04:20:19;;;;;;;;;;;3.50;99.90;;;;;;5104641;28;19961;-77
2023/01/16 04:22:49;;;;;;;;;;;3.50;99.90;;;;;;5103523;28;19915;-77
2023/01/16 04:25:15;;;;;;;;;;;3.50;99.90;;;;;;5103326;28;19915;-77
2023/01/16 04:27:41;;;;;;;;;;;3.60;99.90;;;;;;5085069;28;20271;-79
2023/01/16 04:30:07;;;;;;;;;;;3.70;99.90;;;;;;5085386;28;19919;-76
2023/01/16 04:32:32;;;;;;;;;;;3.60;99.90;;;;;;5102611;28;19916;-77
2023/01/16 04:35:01;;;;;;;;;;;3.50;99.90;;;;;;5102858;28;19915;-76
2023/01/16 04:37:26;;;;;;;;;;;3.80;99.90;;;;;;5103195;28;20394;-77
2023/01/16 04:39:52;;;;;;;;;;;3.80;99.90;;;;;;5102378;28;19911;-77
2023/01/16 04:42:18;;;;;;;;;;;3.70;99.90;;;;;;5102443;28;19912;-77
2023/01/16 04:44:44;;;;;;;;;;;3.80;99.90;;;;;;5084579;28;20191;-77
2023/01/16 04:47:09;;;;;;;;;;;3.80;99.90;;;;;;5103591;28;19940;-77
2023/01/16 04:49:35;;;;;;;;;;;3.80;99.90;;;;;;5083714;28;20271;-77
2023/01/16 04:52:00;;;;;;;;;;;3.90;99.90;;;;;;5102119;28;20278;-77
2023/01/16 04:54:26;;;;;;;;;;;4.00;99.90;;;;;;5102707;28;19973;-77
2023/01/16 04:56:52;;;;;;;;;;;4.00;99.90;;;;;;5084290;28;20278;-77
2023/01/16 04:59:18;;;;;;;;;;;4.10;99.90;;;;;;5102850;28;19911;-77
2023/01/16 05:01:43;;;;;;;;;;;4.10;99.90;;;;;;5084527;28;19908;-77
2023/01/16 05:04:12;;;;;;;;;;;4.20;99.90;;;;;;5102382;28;20386;-77
2023/01/16 05:06:37;;;;;;;;;;;4.20;99.90;;;;;;5083549;28;19908;-77
2023/01/16 05:09:04;;;;;;;;;;;4.20;99.90;;;;;;5101967;28;19922;-77
2023/01/16 05:11:30;;;;;;;;;;;4.20;99.90;;;;;;5084326;28;20393;-77
2023/01/16 05:13:56;;;;;;;;;;;4.20;99.90;;;;;;5083063;28;19916;-76
2023/01/16 05:16:21;;;;;;;;;;;4.20;99.90;;;;;;5102704;28;20461;-77
2023/01/16 05:18:47;;;;;;;;;;;4.30;99.90;;;;;;5083452;28;19907;-76
2023/01/16 05:21:12;;;;;;;;;;;4.30;99.90;;;;;;5083326;28;19914;-77
2023/01/16 05:23:38;;;;;;;;;;;4.40;99.90;;;;;;5102106;28;20108;-78
2023/01/16 05:26:05;;;;;;;;;;;4.50;99.90;;;;;;5101733;28;19908;-77
2023/01/16 05:28:31;;;;;;;;;;;4.50;99.90;;;;;;5102209;28;19963;-77
2023/01/16 05:30:57;;;;;;;;;;;4.60;99.90;;;;;;5102350;28;20108;-77
2023/01/16 05:33:22;;;;;;;;;;;4.60;99.90;;;;;;5101023;28;19966;-77
2023/01/16 05:35:48;;;;;;;;;;;4.60;99.90;;;;;;5102220;28;20473;-77
2023/01/16 05:38:14;;;;;;;;;;;4.60;99.90;;;;;;5101613;28;19951;-77
2023/01/16 05:40:40;;;;;;;;;;;4.70;99.90;;;;;;5082505;28;19912;-77
2023/01/16 05:43:06;;;;;;;;;;;4.70;99.90;;;;;;5101621;28;19915;-76
2023/01/16 05:45:31;;;;;;;;;;;4.80;99.90;;;;;;5101660;28;19931;-75
2023/01/16 05:47:57;;;;;;;;;;;4.90;99.90;;;;;;5100995;28;19991;-77
2023/01/16 05:50:23;;;;;;;;;;;4.90;99.90;;;;;;5100873;28;20344;-76
2023/01/16 05:52:51;;;;;;;;;;;6.00;99.90;;;;;;5101310;28;19916;-78
2023/01/16 05:55:16;;;;;;;;;;;5.00;99.90;;;;;;5101701;28;19995;-78
2023/01/16 05:57:42;;;;;;;;;;;5.00;99.90;;;;;;5102753;28;19976;-76
2023/01/16 06:00:09;;;;;;;;;;;5.00;99.90;;;;;;5101454;28;20409;-77
2023/01/16 06:02:35;;;;;;;;;;;5.00;99.90;;;;;;5102323;28;19965;-77
2023/01/16 06:05:01;;;;;;;;;;;5.00;99.90;;;;;;5082917;28;20204;-77
2023/01/16 06:07:26;;;;;;;;;;;5.10;99.90;;;;;;5100559;28;19911;-77
2023/01/16 06:09:52;;;;;;;;;;;5.10;99.90;;;;;;5102661;28;19988;-77
2023/01/16 06:12:18;;;;;;;;;;;5.20;99.90;;;;;;5101000;28;20441;-78
2023/01/16 06:14:44;;;;;;;;;;;5.20;99.90;;;;;;5082656;28;19911;-77
2023/01/16 06:17:10;;;;;;;;;;;5.30;99.90;;;;;;5100930;28;19919;-79
2023/01/16 06:19:36;;;;;;;;;;;5.20;99.90;;;;;;5100556;28;19912;-77
2023/01/16 06:22:01;;;;;;;;;;;5.30;99.90;;;;;;5082649;28;20370;-77
2023/01/16 06:24:27;;;;;;;;;;;5.20;99.90;;;;;;5102107;28;19919;-77
2023/01/16 06:26:52;;;;;;;;;;;5.20;99.90;;;;;;5101927;28;19915;-77
2023/01/16 06:29:21;;;;;;;;;;;5.20;99.90;;;;;;5102048;28;20132;-77
2023/01/16 06:31:47;;;;;;;;;;;5.20;99.90;;;;;;5083323;28;19908;-76
2023/01/16 06:34:12;;;;;;;;;;;5.30;99.90;;;;;;5101106;28;19927;-77
2023/01/16 06:36:47;;;;;;;;;;;5.30;99.90;;;;;;5100087;28;20570;-76
2023/01/16 06:39:13;;;;;;;;;;;5.40;99.90;;;;;;5102198;28;20007;-78
2023/01/16 06:41:38;;;;;;;;;;;5.60;99.90;;;;;;5101331;28;19995;-78
2023/01/16 06:44:04;;;;;;;;;;;5.60;99.90;;;;;;5100647;28;20332;-77
2023/01/16 06:46:30;;;;;;;;;;;5.60;99.90;;;;;;5100990;28;19907;-78
2023/01/16 06:48:55;;;;;;;;;;;5.60;99.90;;;;;;5101357;28;19908;-77
2023/01/16 06:51:21;;;;;;;;;;;5.60;99.90;;;;;;5103097;28;19914;-78
2023/01/16 06:53:48;;;;;;;;;;;5.70;99.90;;;;;;5100702;28;19946;-80
2023/01/16 06:56:13;;;;;;;;;;;5.70;99.90;;;;;;5101638;28;20083;-78
2023/01/16 06:58:39;;;;;;;;;;;5.80;99.90;;;;;;5102087;28;19948;-78
2023/01/16 07:01:05;;;;;;;;;;;6.10;99.90;;;;;;5100971;28;19904;-78
2023/01/16 07:03:30;;;;;;;;;;;6.30;99.90;;;;;;5102322;28;20585;-77
2023/01/16 07:05:59;;;;;;;;;;;6.50;99.90;;;;;;5104393;28;20080;-79
2023/01/16 07:08:25;;;;;;;;;;;6.70;99.90;;;;;;5086533;28;19914;-77
2023/01/16 07:10:50;;;;;;;;;;;6.60;99.90;;;;;;5084980;28;19912;-78
2023/01/16 07:13:16;;;;;;;;;;;6.60;99.90;;;;;;5107272;28;20586;-78
2023/01/16 07:24:02;;;;;;;;;;;7.50;99.90;;;;;;5125060;28;19911;-79
2023/01/16 07:26:28;;;;;;;;;;;7.80;99.90;;;;;;5101984;28;19957;-81
2023/01/16 07:28:54;;;;;;;;;;;7.90;99.90;;;;;;5119992;28;19920;-78
2023/01/16 07:31:25;;;;;;;;;;;8.40;99.90;;;;;;5120366;28;19958;-79
2023/01/16 07:33:51;;;;;;;;;;;8.70;99.90;;;;;;5098167;28;19912;-79
2023/01/16 07:36:20;;;;;;;;;;;8.80;99.90;;;;;;5118516;28;20317;-80
2023/01/16 07:38:45;;;;;;;;;;;8.90;99.90;;;;;;5103012;28;19904;-79
2023/01/16 07:41:11;;;;;;;;;;;9.00;99.90;;;;;;5121057;28;20305;-80
2023/01/16 07:43:37;;;;;;;;;;;9.00;99.90;;;;;;5104360;28;20537;-78
2023/01/16 07:46:02;;;;;;;;;;;9.20;99.90;;;;;;5117728;28;19907;-77
2023/01/16 07:48:28;;;;;;;;;;;9.30;99.90;;;;;;5111079;28;19912;-76
2023/01/16 07:50:55;;;;;;;;;;;9.30;99.90;;;;;;5112702;28;19914;-78
2023/01/16 07:53:22;;;;;;;;;;;9.30;99.90;;;;;;5093919;28;19916;-79
2023/01/16 07:55:49;;;;;;;;;;;9.40;99.90;;;;;;5096158;28;19911;-78
2023/01/16 07:58:15;;;;;;;;;;;9.50;99.90;;;;;;5116539;28;19907;-77
2023/01/16 08:00:40;;;;;;;;;;;9.70;99.90;;;;;;5112495;28;19939;-76
2023/01/16 08:03:06;;;;;;;;;;;9.70;99.90;;;;;;5108373;28;19926;-78
2023/01/16 08:05:33;;;;;;;;;;;9.70;99.90;;;;;;5112280;28;19914;-78
2023/01/16 08:07:58;;;;;;;;;;;9.80;99.90;;;;;;5112481;28;20002;-77
2023/01/16 08:10:30;;;;;;;;;;;13.30;99.90;;;;;;5113265;28;19966;-77
2023/01/16 08:12:58;;;;;;;;;;;9.90;99.90;;;;;;5094821;28;20009;-79
2023/01/16 08:15:24;;;;;;;;;;;11.60;99.90;;;;;;5113726;28;19907;-77
2023/01/16 08:17:50;;;;;;;;;;;9.90;99.90;;;;;;5111664;28;19969;-78
2023/01/16 08:20:18;;;;;;;;;;;9.90;99.90;;;;;;5111821;28;20007;-77
2023/01/16 08:22:44;;;;;;;;;;;9.80;99.90;;;;;;5110630;28;20148;-78
2023/01/16 08:25:10;;;;;;;;;;;9.80;99.90;;;;;;5110427;28;20003;-77
2023/01/16 08:27:35;;;;;;;;;;;9.70;99.90;;;;;;5091993;28;19950;-77
2023/01/16 08:30:02;;;;;;;;;;;9.70;99.90;;;;;;5091158;28;20558;-78
2023/01/16 08:32:27;;;;;;;;;;;9.90;99.90;;;;;;5092273;28;20567;-77
2023/01/16 08:34:53;;;;;;;;;;;9.90;99.90;;;;;;5087181;28;20027;-77
2023/01/16 08:37:18;;;;;;;;;;;10.10;99.90;;;;;;5092152;28;19918;-79
2023/01/16 08:39:44;;;;;;;;;;;10.30;99.90;;;;;;5111452;28;20469;-78
2023/01/16 08:53:06;;;;;;;;;;;10.80;99.90;;;;;;5109310;28;19915;-78
2023/01/16 08:55:32;;;;;;;;;;;10.70;99.90;;;;;;5108402;28;19908;-78
2023/01/16 08:57:58;;;;;;;;;;;10.80;99.90;;;;;;5092093;28;19968;-78
2023/01/16 09:00:25;;;;;;;;;;;10.80;99.90;;;;;;5108763;28;19971;-79
2023/01/16 09:02:51;;;;;;;;;;;10.90;99.90;;;;;;5089916;28;19904;-78
2023/01/16 09:05:26;;;;;;;;;;;11.10;99.90;;;;;;5107563;28;19947;-77
2023/01/16 09:07:52;;;;;;;;;;;11.10;99.90;;;;;;5088149;28;19915;-76
2023/01/16 09:10:21;;;;;;;;;;;11.20;99.90;;;;;;5113150;28;19915;-79
2023/01/16 09:15:33;;;;;;;;;;;11.30;99.90;;;;;;5107755;28;19914;-78
2023/01/16 09:17:59;;;;;;;;;;;11.50;99.90;;;;;;5086406;28;19911;-78
2023/01/16 09:20:24;;;;;;;;;;;9.90;99.90;;;;;;5104794;28;19968;-78
2023/01/16 09:22:57;;;;;;;;;;;11.00;99.90;;;;;;5105451;28;19915;-79
2023/01/16 09:25:23;;;;;;;;;;;11.80;99.90;;;;;;5104843;28;19943;-78
2023/01/16 09:27:49;;;;;;;;;;;11.70;99.90;;;;;;5106676;28;19912;-78
2023/01/16 09:30:15;;;;;;;;;;;11.70;99.90;;;;;;5105149;28;19935;-79
2023/01/16 09:32:40;;;;;;;;;;;11.70;99.90;;;;;;5103927;28;19912;-78
2023/01/16 09:35:06;;;;;;;;;;;11.70;99.90;;;;;;5103595;28;19943;-78
2023/01/16 09:37:32;;;;;;;;;;;11.70;99.90;;;;;;5103284;28;20389;-79
2023/01/16 09:39:57;;;;;;;;;;;11.80;99.90;;;;;;5103856;28;20161;-79
2023/01/16 09:45:31;;;;;;;;;;;11.70;99.90;;;;;;5105794;28;19964;-78
2023/01/16 09:47:59;;;;;;;;;;;11.50;99.90;;;;;;5087494;28;19945;-79
2023/01/16 09:50:36;;;;;;;;;;;11.50;99.90;;;;;;5105176;28;19911;-78
2023/01/16 09:58:46;;;;;;;;;;;11.30;99.90;;;;;;5106137;28;19915;-78
2023/01/16 10:01:14;;;;;;;;;;;11.20;99.90;;;;;;5108547;28;19914;-78
2023/01/16 10:03:42;;;;;;;;;;;11.10;99.90;;;;;;5107062;28;19907;-79
2023/01/16 10:06:24;;;;;;;;;;;11.10;99.90;;;;;;5108821;28;20534;-79
2023/01/16 10:08:49;;;;;;;;;;;12.80;99.90;;;;;;5109458;28;19912;-78
2023/01/16 10:11:41;;;;;;;;;;;10.90;99.90;;;;;;5111777;28;19907;-78
2023/01/16 10:14:07;;;;;;;;;;;10.80;99.90;;;;;;5091950;28;19975;-79
2023/01/16 10:16:48;;;;;;;;;;;10.70;99.90;;;;;;5092909;28;19943;-79
2023/01/16 10:19:22;;;;;;;;;;;10.80;99.90;;;;;;5117196;28;20161;-80
2023/01/16 10:21:48;;;;;;;;;;;10.70;99.90;;;;;;5115752;28;19911;-79
2023/01/16 10:24:20;;;;;;;;;;;10.80;99.90;;;;;;5119937;28;19950;-78
2023/01/16 10:26:48;;;;;;;;;;;10.70;99.90;;;;;;5097736;28;19904;-77
2023/01/16 10:29:14;;;;;;;;;;;9.90;99.90;;;;;;5115156;28;19920;-79
2023/01/16 10:31:39;;;;;;;;;;;10.50;99.90;;;;;;5110891;28;19911;-79
2023/01/16 10:34:10;;;;;;;;;;;10.50;99.90;;;;;;5091943;28;19915;-78
2023/01/16 10:36:39;;;;;;;;;;;10.40;99.90;;;;;;5106009;28;20537;-78
2023/01/16 10:39:05;;;;;;;;;;;10.40;99.90;;;;;;5103891;28;19959;-79
2023/01/16 10:49:47;;;;;;;;;;;10.40;99.90;;;;;;5020370;28;20181;-79
2023/01/16 10:52:14;;;;;;;;;;;10.20;99.90;;;;;;5019515;28;20403;-79
2023/01/16 10:54:40;;;;;;;;;;;10.20;99.90;;;;;;5018138;28;19925;-79
2023/01/16 10:57:15;;;;;;;;;;;10.20;99.90;;;;;;5001303;28;20218;-81
2023/01/16 10:59:45;;;;;;;;;;;10.10;99.90;;;;;;5019135;28;19909;-79
2023/01/16 11:02:17;;;;;;;;;;;10.20;99.90;;;;;;5019123;28;20066;-77
2023/01/16 11:04:43;;;;;;;;;;;10.20;99.90;;;;;;5017860;28;19995;-76
2023/01/16 11:07:15;;;;;;;;;;;10.10;99.90;;;;;;5017874;28;19914;-78
2023/01/16 11:09:42;;;;;;;;;;;10.20;99.90;;;;;;5016878;28;19916;-77
2023/01/16 11:20:38;;;;;;;;;;;9.90;99.90;;;;;;5028754;28;20025;-79
2023/01/16 11:23:12;;;;;;;;;;;10.40;99.90;;;;;;5102561;28;19903;-80
2023/01/16 11:25:38;;;;;;;;;;;10.20;99.90;;;;;;5102724;28;19907;-79
2023/01/16 11:28:06;;;;;;;;;;;10.20;99.90;;;;;;5083858;28;19923;-79
2023/01/16 11:30:33;;;;;;;;;;;10.10;99.90;;;;;;5102701;28;20003;-80
2023/01/16 11:32:59;;;;;;;;;;;10.00;99.90;;;;;;5101802;28;20526;-79
2023/01/16 11:35:30;;;;;;;;;;;8.90;99.90;;;;;;5103442;28;19973;-79
2023/01/16 11:37:56;;;;;;;;;;;9.80;99.90;;;;;;5103379;28;19903;-79
2023/01/16 11:40:23;;;;;;;;;;;9.70;99.90;;;;;;5103311;28;20004;-80
2023/01/16 11:46:03;;;;;;;;;;;9.80;99.90;;;;;;5104034;28;19965;-80
2023/01/16 11:48:48;;;;;;;;;;;10.00;99.90;;;;;;5085305;28;19916;-79
2023/01/16 11:51:15;;;;;;;;;;;10.10;99.90;;;;;;5086073;28;20064;-79
2023/01/16 11:53:42;;;;;;;;;;;10.10;99.90;;;;;;5102366;28;19916;-79
2023/01/16 11:56:10;;;;;;;;;;;10.10;99.90;;;;;;5102093;28;20319;-80
2023/01/16 11:58:42;;;;;;;;;;;10.10;99.90;;;;;;5102305;28;19914;-78
2023/01/16 12:01:17;;;;;;;;;;;10.10;99.90;;;;;;5106101;28;19908;-79
2023/01/16 12:03:56;;;;;;;;;;;7.50;99.90;;;;;;5106898;28;19994;-79
2023/01/16 12:06:41;;;;;;;;;;;9.90;99.90;;;;;;5108370;28;19908;-79
2023/01/16 12:09:34;;;;;;;;;;;9.90;99.90;;;;;;5108538;28;20032;-79
2023/01/16 12:14:58;;;;;;;;;;;9.70;99.90;;;;;;5024072;28;19913;-79
2023/01/16 12:17:37;;;;;;;;;;;9.50;99.90;;;;;;5024126;28;20047;-78
2023/01/16 12:20:08;;;;;;;;;;;9.20;99.90;;;;;;5023960;28;20114;-78
2023/01/16 12:22:41;;;;;;;;;;;8.90;99.90;;;;;;5023119;28;20637;-78
2023/01/16 12:25:14;;;;;;;;;;;8.90;99.90;;;;;;5025246;28;19909;-78
2023/01/16 12:27:40;;;;;;;;;;;8.80;99.90;;;;;;5026085;28;19921;-79
2023/01/16 12:30:22;;;;;;;;;;;8.70;99.90;;;;;;5030017;28;19912;-78
2023/01/16 12:33:09;;;;;;;;;;;8.60;99.90;;;;;;5030315;28;19909;-78
2023/01/16 12:35:38;;;;;;;;;;;8.50;99.90;;;;;;5032100;28;19976;-78
2023/01/16 12:38:04;;;;;;;;;;;8.40;99.90;;;;;;5032276;28;19909;-78
2023/01/16 12:40:29;;;;;;;;;;;8.30;99.90;;;;;;5017018;28;19916;-78
2023/01/16 12:43:19;;;;;;;;;;;6.50;99.90;;;;;;5037746;28;19910;-77
2023/01/16 12:45:48;;;;;;;;;;;11.40;99.90;;;;;;4920868;29;19939;-77
2023/01/16 12:48:26;;;;;;;;;;;8.30;99.90;;;;;;4920952;29;19919;-78
2023/01/16 12:51:00;;;;;;;;;;;9.10;99.90;;;;;;4917411;28;19986;-78
2023/01/16 12:53:38;;;;;;;;;;;8.20;99.90;;;;;;4978380;28;19924;-78
2023/01/16 12:56:07;;;;;;;;;;;8.10;99.90;;;;;;4994888;28;19914;-78
2023/01/16 12:58:35;;;;;;;;;;;8.10;99.90;;;;;;4992716;28;19914;-78
2023/01/16 13:01:09;;;;;;;;;;;8.00;99.90;;;;;;4993830;28;19906;-77
2023/01/16 13:04:07;;;;;;;;;;;8.00;99.90;;;;;;4993648;28;19957;-78
2023/01/16 13:06:49;;;;;;;;;;;7.90;99.90;;;;;;4912732;29;19918;-78
2023/01/16 13:09:38;;;;;;;;;;;7.80;99.90;;;;;;4911275;29;19911;-76
2023/01/16 13:15:06;;;;;;;;;;;7.80;99.90;;;;;;4909214;29;19930;-78
2023/01/16 13:17:55;;;;;;;;;;;7.70;99.90;;;;;;4908346;29;19979;-77
2023/01/16 13:20:22;;;;;;;;;;;7.70;99.90;;;;;;4870194;29;19923;-78
2023/01/16 13:22:51;;;;;;;;;;;7.70;99.90;;;;;;4888030;29;19907;-78
2023/01/16 13:25:17;;;;;;;;;;;7.70;99.90;;;;;;4908715;29;20060;-78
2023/01/16 13:28:03;;;;;;;;;;;7.70;99.90;;;;;;4891382;29;19915;-78
2023/01/16 13:30:28;;;;;;;;;;;7.60;99.90;;;;;;4891152;29;19926;-78
2023/01/16 13:32:57;;;;;;;;;;;7.60;99.90;;;;;;4907885;29;19919;-78
2023/01/16 13:35:39;;;;;;;;;;;7.60;99.90;;;;;;4905684;29;19914;-77
2023/01/16 13:38:16;;;;;;;;;;;7.50;99.90;;;;;;4907604;29;19912;-78
2023/01/16 13:41:03;;;;;;;;;;;7.40;99.90;;;;;;4893145;29;20668;-77
2023/01/16 13:46:16;;;;;;;;;;;7.30;99.90;;;;;;5006440;28;19912;-78
2023/01/16 13:48:44;;;;;;;;;;;7.30;99.90;;;;;;5005340;28;20507;-77
2023/01/16 13:51:15;;;;;;;;;;;7.20;99.90;;;;;;5006105;28;19913;-77
2023/01/16 13:53:42;;;;;;;;;;;7.20;99.90;;;;;;5004656;28;19918;-77
2023/01/16 13:56:07;;;;;;;;;;;7.30;99.90;;;;;;5005601;28;19910;-77
2023/01/16 13:58:37;;;;;;;;;;;7.40;99.90;;;;;;5107709;28;19904;-77
2023/01/16 14:01:04;;;;;;;;;;;7.40;99.90;;;;;;5109202;28;19904;-78
2023/01/16 14:03:31;;;;;;;;;;;7.40;99.90;;;;;;5107378;28;19908;-78
2023/01/16 14:06:12;;;;;;;;;;;7.40;99.90;;;;;;5089858;28;19910;-78
2023/01/16 14:11:24;;;;;;;;;;;7.30;99.90;;;;;;5114518;28;19910;-78
2023/01/16 14:14:10;;;;;;;;;;;7.30;99.90;;;;;;5113011;28;19962;-78
2023/01/16 14:16:38;;;;;;;;;;;7.10;99.90;;;;;;5107780;28;20006;-78
2023/01/16 14:19:13;;;;;;;;;;;7.00;99.90;;;;;;5108240;28;19911;-78
2023/01/16 14:21:39;;;;;;;;;;;7.00;99.90;;;;;;5108510;27;19911;-77
2023/01/16 14:24:13;;;;;;;;;;;7.00;99.90;;;;;;5112111;28;19914;-78
2023/01/16 14:26:38;;;;;;;;;;;7.00;99.90;;;;;;5094357;28;19911;-78
2023/01/16 14:29:11;;;;;;;;;;;6.90;99.90;;;;;;5088213;28;20615;-78
2023/01/16 14:31:56;;;;;;;;;;;7.00;99.90;;;;;;5087743;28;19916;-78
2023/01/16 14:34:34;;;;;;;;;;;7.00;99.90;;;;;;5106208;28;20561;-78
2023/01/16 14:37:05;;;;;;;;;;;7.10;99.90;;;;;;5087111;28;19911;-78
2023/01/16 14:39:35;;;;;;;;;;;7.10;99.90;;;;;;5105424;28;19904;-78
2023/01/16 14:56:33;;;;;;;;;;;7.30;99.90;;;;;;5002949;28;19942;-78
2023/01/16 14:59:13;;;;;;;;;;;7.30;99.90;;;;;;5001510;28;20674;-77
2023/01/16 15:04:53;;;;;;;;;;;7.30;99.90;;;;;;5002951;28;19956;-77
2023/01/16 15:07:23;;;;;;;;;;;7.30;99.90;;;;;;5003693;28;20420;-78
2023/01/16 15:09:52;;;;;;;;;;;6.90;99.90;;;;;;4986704;28;20015;-78
2023/01/16 15:12:18;;;;;;;;;;;7.20;99.90;;;;;;4986386;28;19939;-78
2023/01/16 15:14:54;;;;;;;;;;;7.20;99.90;;;;;;5005401;28;20468;-78
2023/01/16 15:23:03;;;;;;;;;;;7.20;99.90;;;;;;5111652;28;19935;-79
2023/01/16 15:25:39;;;;;;;;;;;7.40;99.90;;;;;;5110657;28;19916;-78
2023/01/16 15:28:23;;;;;;;;;;;7.30;99.90;;;;;;5091151;28;19919;-78
2023/01/16 15:30:51;;;;;;;;;;;7.20;99.90;;;;;;5107809;28;19916;-78
2023/01/16 15:36:15;;;;;;;;;;;7.10;99.90;;;;;;5108481;28;19911;-78
2023/01/16 15:38:44;;;;;;;;;;;7.00;99.90;;;;;;5106652;28;20534;-77
2023/01/16 15:41:10;;;;;;;;;;;7.00;99.90;;;;;;5107168;28;19911;-78
2023/01/16 15:46:32;;;;;;;;;;;6.90;99.90;;;;;;5108641;28;19957;-78
2023/01/16 15:49:12;;;;;;;;;;;6.90;99.90;;;;;;5107166;28;19904;-78
2023/01/16 15:51:38;;;;;;;;;;;6.90;99.90;;;;;;5108974;28;19908;-78
2023/01/16 15:54:04;;;;;;;;;;;6.90;99.90;;;;;;5106719;28;20006;-78
2023/01/16 15:56:35;;;;;;;;;;;7.00;99.90;;;;;;5089389;28;19984;-77
2023/01/16 15:59:01;;;;;;;;;;;7.00;99.90;;;;;;5107162;28;19912;-78
2023/01/16 16:01:28;;;;;;;;;;;6.90;99.90;;;;;;5107560;28;20011;-78
2023/01/16 16:03:54;;;;;;;;;;;6.80;99.90;;;;;;5106221;28;19992;-77
2023/01/16 16:06:21;;;;;;;;;;;6.80;99.90;;;;;;5108711;28;19908;-77
2023/01/16 16:08:48;;;;;;;;;;;4.70;99.90;;;;;;5108124;28;20526;-79
2023/01/16 16:14:01;;;;;;;;;;;6.80;99.90;;;;;;5108091;28;19962;-80
2023/01/16 16:19:37;;;;;;;;;;;6.80;99.90;;;;;;5028222;28;19913;-79
2023/01/16 16:24:52;;;;;;;;;;;6.90;99.90;;;;;;5028865;28;19912;-78